Oxford, Michigan
Current Conditions -  °F | °C
As of 4:53 PM on Thursday 27 Nov 2014 (Local Time) from KPTK Reporting Station
Light Snow Light Snow  
Wind Chill: 17°   Ceiling: 2700
Heat Index: 28°   Visibility: 9mi
Dew Point: 21°   Wind: 14mph
Humidity: 75%   Direction: 310°NW
Pressure: 30.18"   Gusts: NA
Location:  42.82°N, 83.25°W
Report Text: KPTK 272153Z 31012KT 9SM -SN SCT021 OVC027 M02/M06 A3018 RMK AO2 SLP232 P0000 T10221061
Loading
Personal Weather Stations






























Interactive Weather Map New forecast layout! Learn more

10-Day Weather Forecast

Advertisements
Track Severe Weather on mobile